This is the latest recevied weather packets stored in our database for station/object DH1NAI-6. If no packets are shown the sender has not sent any weather packets the latest 10 day(s).
| Time | Temp. | Humidity | Pressure | Rain* | Wind** | Luminosity | Snow |
|---|---|---|---|---|---|---|---|
| 1777927537 | 14.44° C | 81% | 1010.7 hPa | 0 mm | - | 0 W/m² | - |
| 1777926929 | 14.44° C | 81% | 1010.5 hPa | 0 mm | - | 0 W/m² | - |
| 1777926322 | 14.44° C | 81% | 1010.7 hPa | 0 mm | - | 0 W/m² | - |
| 1777925713 | 15° C | 81% | 1010.4 hPa | 0 mm | - | 0 W/m² | - |
| 1777925105 | 15° C | 80% | 1010.5 hPa | 0 mm | - | 0 W/m² | - |
| 1777924498 | 15° C | 80% | 1010.5 hPa | 0 mm | - | 0 W/m² | - |
| 1777923890 | 15° C | 80% | 1010.5 hPa | 0 mm | - | 0 W/m² | - |
| 1777923281 | 14.44° C | 81% | 1010.4 hPa | 0 mm | - | 0 W/m² | - |
| 1777922673 | 14.44° C | 80% | 1010.7 hPa | 0 mm | - | 0 W/m² | - |
| 1777922066 | 13.89° C | 82% | 1010.7 hPa | 0 mm | - | 0 W/m² | - |
| 1777921457 | 13.89° C | 80% | 1010.4 hPa | 0 mm | - | 0 W/m² | - |
| 1777920833 | 13.89° C | 79% | 1010.4 hPa | 0 mm | - | 0 W/m² | - |
| 1777920226 | 14.44° C | 78% | 1010.3 hPa | 0 mm | - | 0 W/m² | - |
| 1777919612 | 16.11° C | 70% | 1010.2 hPa | 0 mm | - | 0 W/m² | - |
| 1777919010 | 16.67° C | 65% | 1010.3 hPa | 0 mm | - | 1 W/m² | - |
| 1777918401 | 16.67° C | 66% | 1010.2 hPa | 0 mm | - | 3 W/m² | - |
| 1777917794 | 17.22° C | 65% | 1010.4 hPa | 0 mm | - | 4 W/m² | - |
| 1777917186 | 18.33° C | 62% | 1010.2 hPa | 0 mm | - | 6 W/m² | - |
| 1777916578 | 18.33° C | 57% | 1009.9 hPa | 0 mm | - | 8 W/m² | - |
| 1777915954 | 18.33° C | 58% | 1010.2 hPa | 0 mm | - | 9 W/m² | - |
| 1777915346 | 18.33° C | 58% | 1010.2 hPa | 0 mm | - | 11 W/m² | - |
| 1777914738 | 18.89° C | 57% | 1010.5 hPa | 0 mm | - | 14 W/m² | - |
| 1777914129 | 19.44° C | 57% | 1010.4 hPa | 0 mm | - | 20 W/m² | - |
| 1777913522 | 19.44° C | 55% | 1010.3 hPa | 0 mm | - | 26 W/m² | - |
| 1777912914 | 19.44° C | 58% | 1010.2 hPa | 0 mm | - | 25 W/m² | - |
* Rain latest hour (hover to see other rain measurements)
** Current wind speed in m/s (hover to see current wind gust speed)